KGTF

Great Falls International

Airport
ICAO code
KGTF
IATA Code
GTF
Summary
ICAO Region
NAM
ICAO Territory
Location

Great Falls, Montana

Serving
Great Falls
Elevation
3680 ft
Coordinates
47° 28' 40" N , 111° 21' 33" W
KCC
Airport CFIT
Altimeter Temperature Error Correction
Airport RE
Hot and High Operations
Airport WX
Mountain Waves
Metar
KGTF 141953Z 00000KT 10SM CLR 22/02 A2980 RMK AO2 SLP082 T02220022

Great Falls International Airport is a joint civil-military public airport located within city limits, 5 km southwest of central Great Falls in Cascade County, Montana, USA. GTF serves the Great Falls area, as well as other communities throughout central Montana.

Airport map

Aerial View

SKYbrary Partners:

Safety knowledge contributed by: